Time;durP1;ratioP1;P1;durP2;ratioP2;P2;SDS_P1;SDS_P2;PMS_P1;PMS_P2;Temp;Humidity;BMP_temperature;BMP_pressure;BME280_temperature;BME280_humidity;BME280_pressure;Samples;Min_cycle;Max_cycle;Signal;HPM_P1;HPM_P2
2023/01/07 00:01:16;;;;;;;3.88;1.20;;;19.40;99.90;;;;;;5065778;28;20457;-79
2023/01/07 00:03:44;;;;;;;5.53;1.40;;;19.40;99.90;;;;;;5047216;28;20393;-79
2023/01/07 00:06:13;;;;;;;5.07;1.10;;;19.50;99.90;;;;;;5048090;28;20379;-79
2023/01/07 00:08:42;;;;;;;2.92;1.00;;;19.40;99.90;;;;;;5057410;28;20406;-79
2023/01/07 00:11:18;;;;;;;4.18;1.10;;;19.30;99.90;;;;;;5065968;28;20441;-79
2023/01/07 00:13:45;;;;;;;4.70;1.20;;;19.10;99.90;;;;;;5042770;28;20933;-79
2023/01/07 00:16:15;;;;;;;4.60;1.40;;;19.20;99.90;;;;;;5054658;28;20398;-80
2023/01/07 00:18:43;;;;;;;4.47;1.40;;;19.30;99.90;;;;;;5054748;28;20388;-79
2023/01/07 00:21:13;;;;;;;4.78;1.50;;;19.40;99.90;;;;;;5068337;28;20373;-80
2023/01/07 00:23:41;;;;;;;7.13;1.50;;;19.50;99.90;;;;;;5064832;28;20447;-79
2023/01/07 00:26:14;;;;;;;6.43;1.60;;;19.50;99.90;;;;;;5045845;28;20386;-79
2023/01/07 00:28:42;;;;;;;5.30;1.73;;;19.50;99.90;;;;;;5052301;28;20366;-79
2023/01/07 00:31:19;;;;;;;4.32;1.58;;;19.60;99.90;;;;;;5071289;28;20846;-79
2023/01/07 00:36:23;;;;;;;7.50;1.87;;;19.70;99.90;;;;;;5071493;28;20382;-80
2023/01/07 00:39:00;;;;;;;5.15;1.48;;;19.60;99.90;;;;;;5066522;28;20728;-80
2023/01/07 00:41:28;;;;;;;5.88;1.50;;;19.40;99.90;;;;;;5051568;28;20387;-80
2023/01/07 00:43:55;;;;;;;7.70;1.55;;;19.60;99.90;;;;;;5050825;28;20375;-80
2023/01/07 00:46:22;;;;;;;7.80;1.52;;;20.10;99.90;;;;;;5064435;28;20374;-80
2023/01/07 00:48:49;;;;;;;7.18;1.75;;;20.40;99.90;;;;;;5070950;28;20396;-80
2023/01/07 00:51:18;;;;;;;6.78;1.63;;;20.80;99.90;;;;;;5070194;28;20374;-80
2023/01/07 00:53:45;;;;;;;5.67;1.40;;;21.00;99.90;;;;;;5058388;28;20370;-80
2023/01/07 00:56:14;;;;;;;5.40;1.65;;;21.30;99.90;;;;;;5069845;28;20393;-80
2023/01/07 00:58:41;;;;;;;7.85;1.48;;;21.30;99.90;;;;;;5050923;28;20415;-80
2023/01/07 01:01:09;;;;;;;6.15;1.45;;;21.40;99.90;;;;;;5052132;28;21031;-81
2023/01/07 01:03:37;;;;;;;7.97;1.60;;;21.30;99.90;;;;;;5058319;28;20871;-80
2023/01/07 01:06:15;;;;;;;5.53;1.58;;;21.30;99.90;;;;;;5050821;28;20972;-80
2023/01/07 01:08:44;;;;;;;5.35;1.60;;;21.20;99.90;;;;;;5050815;28;20391;-80
2023/01/07 01:11:12;;;;;;;6.50;1.70;;;21.10;99.90;;;;;;5041688;28;20508;-79
2023/01/07 01:13:44;;;;;;;6.15;1.70;;;21.10;99.90;;;;;;5050453;28;20399;-81
2023/01/07 01:16:14;;;;;;;8.20;1.60;;;21.20;99.90;;;;;;5050214;28;20427;-80
2023/01/07 01:18:41;;;;;;;16.10;4.70;;;21.50;99.90;;;;;;5050308;28;20376;-80
2023/01/07 01:21:11;;;;;;;9.50;1.60;;;21.80;99.90;;;;;;5047878;28;20386;-80
2023/01/07 01:23:38;;;;;;;6.95;1.60;;;21.80;99.90;;;;;;5043800;28;20403;-80
2023/01/07 01:26:11;;;;;;;6.95;1.60;;;22.00;99.90;;;;;;5032971;28;20388;-80
2023/01/07 01:28:38;;;;;;;5.43;1.60;;;22.40;99.90;;;;;;5046037;28;20383;-79
2023/01/07 01:31:07;;;;;;;6.18;1.40;;;22.70;99.90;;;;;;5028727;28;20841;-82
2023/01/07 01:33:34;;;;;;;6.68;1.52;;;22.90;99.90;;;;;;5038636;28;20384;-80
2023/01/07 01:36:08;;;;;;;8.15;1.60;;;23.10;99.90;;;;;;5050659;28;20395;-80
2023/01/07 01:38:36;;;;;;;4.75;1.40;;;23.20;99.90;;;;;;5048087;28;20432;-80
2023/01/07 01:41:03;;;;;;;6.72;1.50;;;23.40;99.90;;;;;;5043172;28;20380;-80
2023/01/07 01:43:32;;;;;;;4.07;1.30;;;23.40;99.90;;;;;;5051095;28;20381;-80
2023/01/07 01:46:02;;;;;;;6.68;1.40;;;23.20;99.90;;;;;;5050964;28;20367;-81
2023/01/07 01:48:31;;;;;;;5.82;1.30;;;23.00;99.90;;;;;;5050766;28;20384;-81
2023/01/07 01:50:59;;;;;;;4.05;1.30;;;22.70;99.90;;;;;;5050516;28;20408;-80
2023/01/07 01:53:32;;;;;;;7.63;1.60;;;22.40;99.90;;;;;;5049892;28;20387;-80
2023/01/07 01:56:21;;;;;;;10.07;1.60;;;22.20;99.90;;;;;;5044363;28;20897;-80
2023/01/07 01:58:54;;;;;;;7.07;1.58;;;21.80;99.90;;;;;;5021551;28;20391;-80
2023/01/07 02:01:21;;;;;;;5.95;1.48;;;21.80;99.90;;;;;;5066252;28;20881;-80
2023/01/07 02:03:49;;;;;;;5.77;1.50;;;21.70;99.90;;;;;;5070184;28;20378;-82
2023/01/07 02:06:28;;;;;;;5.93;1.47;;;21.80;99.90;;;;;;5046011;28;20391;-82
2023/01/07 02:08:55;;;;;;;6.53;1.50;;;22.00;99.90;;;;;;5049044;28;20542;-82
2023/01/07 02:11:43;;;;;;;6.45;1.50;;;22.10;99.90;;;;;;5044703;28;20469;-83
2023/01/07 02:14:13;;;;;;;5.85;1.40;;;22.30;99.90;;;;;;5048686;28;20395;-86
2023/01/07 02:16:49;;;;;;;5.63;1.40;;;22.40;99.90;;;;;;5048913;28;20375;-83
2023/01/07 02:19:57;;;;;;;7.15;1.60;;;22.50;99.90;;;;;;5049243;28;20392;-84
2023/01/07 02:23:01;;;;;;;7.20;1.58;;;22.50;99.90;;;;;;5038221;28;20403;-82
2023/01/07 02:25:46;;;;;;;5.87;1.60;;;22.50;99.90;;;;;;5047773;28;20398;-84
2023/01/07 02:28:58;;;;;;;7.57;1.55;;;22.10;99.90;;;;;;5035262;28;20756;-84
2023/01/07 02:31:52;;;;;;;5.82;1.55;;;21.90;99.90;;;;;;5044664;28;20785;-85
2023/01/07 02:34:34;;;;;;;5.57;1.40;;;21.80;99.90;;;;;;5044565;28;20937;-85
2023/01/07 02:37:26;;;;;;;7.20;1.50;;;21.80;99.90;;;;;;5036789;28;20388;-84
2023/01/07 02:40:09;;;;;;;7.65;1.42;;;22.10;99.90;;;;;;5054513;28;20379;-83
2023/01/07 02:42:36;;;;;;;4.82;1.42;;;22.30;99.90;;;;;;5046555;28;20388;-83
2023/01/07 02:45:17;;;;;;;5.80;1.50;;;22.70;99.90;;;;;;5053201;28;20395;-82
2023/01/07 02:47:55;;;;;;;4.63;1.30;;;23.20;99.90;;;;;;5049992;28;20383;-83
2023/01/07 02:50:22;;;;;;;5.30;1.50;;;23.90;99.90;;;;;;5049559;28;21058;-85
2023/01/07 02:52:49;;;;;;;5.50;1.45;;;24.30;99.70;;;;;;5051702;28;20453;-82
2023/01/07 02:55:52;;;;;;;5.43;1.50;;;24.40;99.50;;;;;;5053514;28;20404;-86
2023/01/07 02:58:57;;;;;;;5.55;1.42;;;24.40;99.00;;;;;;5052626;28;20411;-83
2023/01/07 03:01:33;;;;;;;4.50;1.27;;;24.40;98.90;;;;;;5050485;28;20384;-82
2023/01/07 03:04:25;;;;;;;5.20;1.25;;;24.30;98.10;;;;;;5053509;28;20455;-82
2023/01/07 03:07:08;;;;;;;6.40;1.33;;;24.00;97.80;;;;;;5046667;28;20914;-85
2023/01/07 03:10:04;;;;;;;5.43;1.50;;;23.90;97.40;;;;;;5052808;28;20473;-82
2023/01/07 03:12:36;;;;;;;4.80;1.40;;;23.90;97.20;;;;;;5051849;28;20384;-84
2023/01/07 03:15:12;;;;;;;5.35;1.42;;;23.80;97.90;;;;;;5043501;28;21028;-83
2023/01/07 03:17:51;;;;;;;3.95;1.33;;;23.50;98.10;;;;;;5052914;28;20368;-81
2023/01/07 03:20:21;;;;;;;6.10;1.30;;;23.70;98.20;;;;;;5053502;28;20863;-83
2023/01/07 03:22:49;;;;;;;3.58;1.17;;;23.70;97.90;;;;;;5057763;28;20388;-82
2023/01/07 03:25:20;;;;;;;5.40;1.30;;;23.70;97.50;;;;;;5049792;28;20388;-82
2023/01/07 03:27:49;;;;;;;5.60;1.40;;;23.40;98.00;;;;;;5045696;28;20383;-82
2023/01/07 03:30:18;;;;;;;5.93;1.40;;;23.40;97.70;;;;;;5048278;28;20383;-82
2023/01/07 03:33:04;;;;;;;4.73;1.30;;;23.30;97.80;;;;;;5052610;28;20376;-83
2023/01/07 03:35:33;;;;;;;4.68;1.40;;;23.50;98.40;;;;;;5052764;28;20948;-82
2023/01/07 03:38:02;;;;;;;4.15;1.10;;;23.80;97.60;;;;;;5045243;28;20456;-85
2023/01/07 03:40:29;;;;;;;3.95;1.20;;;23.80;97.10;;;;;;5043110;28;20391;-79
2023/01/07 03:42:58;;;;;;;4.50;1.30;;;24.10;96.80;;;;;;5052738;28;20432;-82
2023/01/07 03:45:27;;;;;;;4.50;1.17;;;24.50;95.70;;;;;;5052669;28;20383;-85
2023/01/07 03:47:56;;;;;;;4.57;1.30;;;24.90;95.50;;;;;;5052743;28;20425;-82
2023/01/07 03:50:23;;;;;;;3.90;1.20;;;25.10;94.50;;;;;;5052299;28;20388;-85
2023/01/07 03:52:50;;;;;;;4.43;1.30;;;25.40;93.70;;;;;;5064819;28;20413;-86
2023/01/07 03:55:17;;;;;;;4.90;1.50;;;25.80;93.10;;;;;;5065623;28;20763;-84
2023/01/07 03:57:44;;;;;;;3.95;1.27;;;26.10;92.40;;;;;;5051468;28;20453;-82
2023/01/07 04:00:13;;;;;;;3.40;1.27;;;26.30;91.10;;;;;;5040130;28;20387;-86
2023/01/07 04:02:41;;;;;;;4.32;1.10;;;26.30;90.80;;;;;;5065617;28;20374;-85
2023/01/07 04:05:09;;;;;;;4.20;1.27;;;26.20;90.40;;;;;;5059525;28;20378;-83
2023/01/07 04:07:37;;;;;;;3.90;1.30;;;26.20;90.80;;;;;;5060705;28;20406;-85
2023/01/07 04:10:05;;;;;;;3.47;1.20;;;26.40;90.30;;;;;;5058582;28;20387;-84
2023/01/07 04:12:32;;;;;;;4.60;1.23;;;26.40;90.00;;;;;;5052586;28;20383;-84
2023/01/07 04:15:00;;;;;;;4.35;1.30;;;26.80;89.40;;;;;;5044023;28;20417;-84
2023/01/07 04:17:27;;;;;;;3.67;1.13;;;27.00;88.90;;;;;;5049953;28;20385;-86
2023/01/07 04:19:54;;;;;;;3.88;1.25;;;26.90;86.80;;;;;;5034872;28;20391;-85
2023/01/07 04:22:21;;;;;;;4.00;1.30;;;26.80;87.70;;;;;;5054402;28;20924;-83
2023/01/07 04:24:48;;;;;;;3.42;1.00;;;26.80;86.70;;;;;;5054458;28;20384;-84
2023/01/07 04:27:14;;;;;;;3.93;1.20;;;27.00;86.10;;;;;;5036861;28;20375;-83
2023/01/07 04:29:41;;;;;;;6.38;1.20;;;27.10;84.90;;;;;;5044964;28;20432;-84
2023/01/07 04:32:08;;;;;;;3.72;1.33;;;27.00;85.40;;;;;;5052104;28;20372;-84
2023/01/07 04:34:35;;;;;;;5.15;1.30;;;26.80;85.80;;;;;;5046215;28;20961;-83
2023/01/07 04:37:02;;;;;;;8.02;1.20;;;26.70;85.10;;;;;;5050648;28;20416;-84
2023/01/07 04:39:29;;;;;;;2.88;1.13;;;26.60;85.60;;;;;;5064789;28;20415;-82
2023/01/07 04:41:56;;;;;;;3.95;1.27;;;26.60;86.50;;;;;;5062591;28;21016;-84
2023/01/07 04:44:23;;;;;;;3.13;1.35;;;26.60;87.30;;;;;;5069812;28;20370;-85
2023/01/07 04:46:50;;;;;;;3.72;1.40;;;26.40;87.00;;;;;;5069066;28;20871;-84
2023/01/07 04:49:17;;;;;;;4.28;1.30;;;26.40;87.90;;;;;;5068566;28;20436;-86
2023/01/07 04:51:44;;;;;;;4.03;1.15;;;26.30;87.60;;;;;;5061690;28;20372;-85
2023/01/07 04:54:11;;;;;;;3.63;1.00;;;26.10;86.60;;;;;;5060916;28;20402;-87
2023/01/07 04:56:38;;;;;;;3.63;0.97;;;25.90;85.80;;;;;;5054263;28;20371;-87
2023/01/07 04:59:05;;;;;;;2.90;1.10;;;25.50;86.00;;;;;;5049438;28;20906;-83
2023/01/07 05:01:31;;;;;;;6.75;1.90;;;25.20;89.00;;;;;;5051857;28;20459;-85
2023/01/07 05:03:58;;;;;;;6.38;1.65;;;25.00;91.00;;;;;;5047456;28;20866;-85
2023/01/07 05:06:25;;;;;;;6.82;1.80;;;24.80;91.80;;;;;;5041079;28;20732;-84
2023/01/07 05:08:53;;;;;;;6.37;1.90;;;24.60;92.10;;;;;;5050880;28;20506;-85
2023/01/07 05:11:20;;;;;;;9.50;2.08;;;24.40;92.90;;;;;;5052116;28;20376;-86
2023/01/07 05:13:49;;;;;;;6.68;2.17;;;24.20;93.70;;;;;;5051877;28;20383;-83
2023/01/07 05:16:16;;;;;;;9.73;2.00;;;23.90;94.60;;;;;;5052309;28;20391;-82
2023/01/07 05:18:43;;;;;;;11.18;2.33;;;23.80;95.40;;;;;;5051922;28;20395;-85
2023/01/07 05:21:11;;;;;;;9.45;2.20;;;23.60;95.70;;;;;;5052306;28;20375;-84
2023/01/07 05:23:38;;;;;;;9.35;2.15;;;23.50;96.60;;;;;;5051682;28;20376;-82
2023/01/07 05:26:05;;;;;;;9.88;2.17;;;23.20;96.60;;;;;;5052368;28;20736;-83
2023/01/07 05:28:32;;;;;;;7.27;1.90;;;23.00;97.00;;;;;;5050240;28;20388;-84
2023/01/07 05:30:59;;;;;;;10.43;2.25;;;22.80;97.30;;;;;;5051169;28;20376;-81
2023/01/07 05:33:26;;;;;;;9.07;1.92;;;22.60;97.90;;;;;;5046435;28;20419;-81
2023/01/07 05:35:53;;;;;;;10.57;2.13;;;22.50;98.10;;;;;;5049051;28;20411;-83
2023/01/07 05:38:20;;;;;;;9.57;2.13;;;22.30;98.30;;;;;;5047676;28;20381;-82
2023/01/07 05:40:48;;;;;;;10.57;1.90;;;22.30;98.50;;;;;;5047317;28;21024;-83
2023/01/07 05:43:16;;;;;;;7.55;2.00;;;22.20;98.90;;;;;;5047673;28;20874;-81
2023/01/07 05:45:44;;;;;;;8.38;1.90;;;22.20;98.70;;;;;;5045872;28;20384;-82
2023/01/07 05:48:12;;;;;;;8.70;2.20;;;22.30;98.90;;;;;;5049622;28;20379;-83
2023/01/07 05:50:39;;;;;;;8.65;2.20;;;22.30;98.30;;;;;;5045958;28;20871;-80
2023/01/07 05:53:06;;;;;;;9.00;2.10;;;22.30;98.50;;;;;;5051593;28;20379;-80
2023/01/07 05:55:35;;;;;;;8.90;2.00;;;22.20;98.60;;;;;;5062079;28;20406;-86
2023/01/07 05:58:02;;;;;;;8.48;1.88;;;22.30;98.60;;;;;;5036400;28;20534;-81
2023/01/07 06:00:29;;;;;;;6.70;1.90;;;22.30;99.00;;;;;;5050823;28;20380;-82
2023/01/07 06:02:59;;;;;;;6.72;1.90;;;22.40;98.50;;;;;;5041652;28;20402;-80
2023/01/07 06:05:26;;;;;;;7.93;2.00;;;22.40;98.40;;;;;;5044279;28;20415;-84
2023/01/07 06:07:53;;;;;;;8.10;1.73;;;22.30;98.40;;;;;;5060954;28;20414;-82
2023/01/07 06:10:20;;;;;;;7.38;1.60;;;22.20;99.00;;;;;;5053164;28;20872;-83
2023/01/07 06:12:47;;;;;;;6.75;1.80;;;22.20;99.60;;;;;;5039972;28;20485;-85
2023/01/07 06:15:14;;;;;;;7.57;2.00;;;22.30;99.80;;;;;;5059788;28;20655;-81
2023/01/07 06:17:41;;;;;;;5.03;1.80;;;22.30;99.60;;;;;;5052783;28;20390;-80
2023/01/07 06:20:09;;;;;;;6.05;2.00;;;22.20;99.90;;;;;;5058928;28;20386;-86
2023/01/07 06:22:36;;;;;;;9.35;1.73;;;22.30;99.90;;;;;;5054370;28;20381;-83
2023/01/07 06:25:03;;;;;;;9.23;1.90;;;22.30;99.90;;;;;;5041711;28;20394;-83
2023/01/07 06:27:30;;;;;;;7.03;1.88;;;22.30;99.90;;;;;;5052720;28;20400;-82
2023/01/07 06:29:57;;;;;;;9.18;1.90;;;22.20;99.90;;;;;;5049147;28;20537;-84
2023/01/07 06:32:24;;;;;;;8.13;1.95;;;22.20;99.90;;;;;;5053037;28;20793;-80
2023/01/07 06:34:51;;;;;;;8.75;1.95;;;22.10;99.90;;;;;;5049620;28;20439;-82
2023/01/07 06:37:18;;;;;;;11.07;2.00;;;22.00;99.90;;;;;;5057445;28;20390;-83
2023/01/07 06:39:45;;;;;;;4.97;1.70;;;22.00;99.90;;;;;;5067602;28;20465;-81
2023/01/07 06:42:12;;;;;;;7.10;1.90;;;21.90;99.90;;;;;;5061556;28;20792;-82
2023/01/07 06:44:39;;;;;;;6.53;1.70;;;21.80;99.90;;;;;;5056807;28;20417;-84
2023/01/07 06:47:06;;;;;;;6.90;1.70;;;21.70;99.90;;;;;;5066041;28;20384;-82
2023/01/07 06:49:33;;;;;;;8.18;1.70;;;21.70;99.90;;;;;;5052748;28;20711;-83
2023/01/07 06:52:00;;;;;;;6.60;1.80;;;21.60;99.90;;;;;;5058015;28;20394;-83
2023/01/07 06:54:27;;;;;;;7.65;1.80;;;21.50;99.90;;;;;;5046910;28;21039;-85
2023/01/07 06:56:54;;;;;;;5.45;1.52;;;21.50;99.90;;;;;;5047002;28;20387;-87
2023/01/07 06:59:21;;;;;;;6.97;1.88;;;21.50;99.90;;;;;;5029517;28;20386;-87
2023/01/07 07:01:48;;;;;;;6.95;1.63;;;21.50;99.90;;;;;;5062461;28;21001;-82
2023/01/07 07:04:15;;;;;;;6.45;1.48;;;21.50;99.90;;;;;;5049748;28;20906;-84
2023/01/07 07:06:42;;;;;;;6.97;1.70;;;21.40;99.90;;;;;;5046978;28;20386;-84
2023/01/07 07:09:09;;;;;;;6.82;1.70;;;21.40;99.90;;;;;;5068538;28;20394;-83
2023/01/07 07:11:36;;;;;;;9.73;1.50;;;21.30;99.90;;;;;;5059576;28;20375;-82
2023/01/07 07:14:03;;;;;;;6.95;1.70;;;21.30;99.90;;;;;;5048339;28;20670;-81
2023/01/07 07:16:30;;;;;;;6.78;1.42;;;21.20;99.90;;;;;;5049190;28;20402;-80
2023/01/07 07:18:57;;;;;;;6.85;1.60;;;21.10;99.90;;;;;;5052893;28;20368;-84
2023/01/07 07:21:24;;;;;;;6.85;1.63;;;21.10;99.90;;;;;;5052399;28;21303;-84
2023/01/07 07:23:51;;;;;;;5.20;1.50;;;21.00;99.90;;;;;;5051715;28;20452;-86
2023/01/07 07:26:18;;;;;;;8.25;1.60;;;21.00;99.90;;;;;;5045775;28;20423;-85
2023/01/07 07:28:45;;;;;;;6.13;1.52;;;20.90;99.90;;;;;;5052797;28;20462;-81
2023/01/07 07:31:13;;;;;;;7.03;1.58;;;20.90;99.90;;;;;;5050646;28;20399;-90
2023/01/07 07:33:40;;;;;;;7.93;1.60;;;20.80;99.90;;;;;;5043319;28;20437;-88
2023/01/07 07:36:07;;;;;;;6.45;1.73;;;20.80;99.90;;;;;;5049833;28;20943;-83
2023/01/07 07:38:34;;;;;;;9.25;1.80;;;20.80;99.90;;;;;;5051391;28;20398;-83
2023/01/07 07:41:01;;;;;;;8.65;1.60;;;20.70;99.90;;;;;;5052340;28;20382;-84
2023/01/07 07:43:28;;;;;;;4.78;1.48;;;20.60;99.90;;;;;;5051671;28;20392;-86
2023/01/07 07:45:56;;;;;;;9.43;1.73;;;20.60;99.90;;;;;;5052404;28;20888;-81
2023/01/07 07:48:23;;;;;;;6.47;1.40;;;20.60;99.90;;;;;;5052296;28;20902;-84
2023/01/07 07:50:51;;;;;;;8.65;1.50;;;20.50;99.90;;;;;;5050549;28;20503;-83
2023/01/07 07:53:19;;;;;;;5.80;1.50;;;20.50;99.90;;;;;;5051465;28;20475;-77
2023/01/07 07:55:46;;;;;;;6.18;1.58;;;20.40;99.90;;;;;;5059473;28;20430;-83
2023/01/07 07:58:14;;;;;;;8.32;1.80;;;20.30;99.90;;;;;;5048787;28;20406;-84
2023/01/07 08:00:41;;;;;;;5.53;1.55;;;20.30;99.90;;;;;;5052507;28;20426;-84
2023/01/07 08:03:09;;;;;;;6.35;1.70;;;20.30;99.90;;;;;;5051813;28;20383;-83
2023/01/07 08:05:40;;;;;;;5.25;1.40;;;20.30;99.90;;;;;;5050038;28;20383;-83
2023/01/07 08:08:08;;;;;;;7.23;1.80;;;20.20;99.90;;;;;;5049350;28;20415;-80
2023/01/07 08:10:35;;;;;;;7.78;1.42;;;20.20;99.90;;;;;;5044234;28;20380;-81
2023/01/07 08:13:03;;;;;;;7.38;1.77;;;20.10;99.90;;;;;;5048494;28;20389;-83
2023/01/07 08:15:30;;;;;;;5.57;1.40;;;20.00;99.90;;;;;;5056056;28;20407;-85
2023/01/07 08:18:03;;;;;;;5.13;1.40;;;20.00;99.90;;;;;;5027525;28;20379;-82
2023/01/07 08:20:30;;;;;;;5.28;1.48;;;19.90;99.90;;;;;;5054138;28;20475;-84
2023/01/07 08:23:02;;;;;;;8.13;1.45;;;19.80;99.90;;;;;;5054157;28;20383;-85
2023/01/07 08:25:31;;;;;;;5.93;1.50;;;19.80;99.90;;;;;;5051340;28;20406;-84
2023/01/07 08:27:58;;;;;;;4.15;1.20;;;19.70;99.90;;;;;;5049846;28;20395;-82
2023/01/07 08:30:27;;;;;;;4.83;1.00;;;19.60;99.90;;;;;;5052054;28;20395;-84
2023/01/07 08:32:54;;;;;;;6.17;1.27;;;19.60;99.90;;;;;;5045407;28;20435;-84
2023/01/07 08:35:21;;;;;;;3.97;1.30;;;19.50;99.90;;;;;;5051149;28;20412;-86
2023/01/07 08:37:49;;;;;;;6.83;1.30;;;19.50;99.90;;;;;;5051621;28;20567;-86
2023/01/07 08:40:16;;;;;;;5.93;1.15;;;19.50;99.90;;;;;;5052202;28;20418;-86
2023/01/07 08:42:43;;;;;;;8.02;1.30;;;19.40;99.90;;;;;;5049088;28;20420;-86
2023/01/07 08:45:11;;;;;;;5.72;1.38;;;19.40;99.90;;;;;;5042052;28;20391;-84
2023/01/07 08:47:38;;;;;;;5.13;1.20;;;19.30;99.90;;;;;;5064136;28;20418;-83
2023/01/07 08:50:05;;;;;;;6.13;1.33;;;19.30;99.90;;;;;;5051555;28;20383;-86
2023/01/07 08:52:32;;;;;;;6.67;1.33;;;19.30;99.90;;;;;;5033313;28;20411;-83
2023/01/07 08:54:59;;;;;;;10.23;1.92;;;19.30;99.90;;;;;;5045439;28;20403;-86
2023/01/07 08:57:26;;;;;;;6.90;1.73;;;19.20;99.90;;;;;;5050333;28;20412;-83
2023/01/07 08:59:53;;;;;;;5.95;1.58;;;19.20;99.90;;;;;;5045381;28;21054;-86
2023/01/07 09:02:20;;;;;;;8.45;1.70;;;19.10;99.90;;;;;;5044475;28;20441;-86
2023/01/07 09:04:47;;;;;;;7.13;1.52;;;19.10;99.90;;;;;;5051463;28;20728;-88
2023/01/07 09:07:14;;;;;;;9.18;1.88;;;19.10;99.90;;;;;;5051002;28;20906;-84
2023/01/07 09:09:41;;;;;;;6.97;1.90;;;19.00;99.90;;;;;;5050661;28;20386;-86
2023/01/07 09:12:09;;;;;;;7.93;1.67;;;19.00;99.90;;;;;;5059037;28;20437;-84
2023/01/07 09:14:35;;;;;;;8.80;1.83;;;19.00;99.90;;;;;;5051152;28;20937;-86
2023/01/07 09:17:03;;;;;;;8.85;1.70;;;18.90;99.90;;;;;;5051111;28;20433;-87
2023/01/07 09:19:30;;;;;;;7.22;1.90;;;18.90;99.90;;;;;;5051104;28;20419;-87
2023/01/07 09:21:57;;;;;;;9.00;1.73;;;18.80;99.90;;;;;;5051145;28;20384;-85
2023/01/07 09:24:26;;;;;;;8.40;1.92;;;18.80;99.90;;;;;;5050850;28;20459;-85
2023/01/07 09:26:53;;;;;;;7.55;1.65;;;18.80;99.90;;;;;;5050014;28;20391;-85
2023/01/07 09:29:20;;;;;;;7.75;1.60;;;18.70;99.90;;;;;;5051638;28;20412;-83
2023/01/07 09:31:47;;;;;;;10.45;1.77;;;18.80;99.90;;;;;;5051184;28;20518;-85
2023/01/07 09:34:13;;;;;;;8.05;1.90;;;18.80;99.90;;;;;;5050463;28;20440;-81
2023/01/07 09:36:40;;;;;;;8.43;1.83;;;18.70;99.90;;;;;;5051152;28;20392;-85
2023/01/07 09:39:11;;;;;;;8.25;1.90;;;18.70;99.90;;;;;;5050489;28;20380;-85
2023/01/07 09:41:38;;;;;;;8.43;1.63;;;18.70;99.90;;;;;;5045692;28;20494;-85
2023/01/07 09:44:39;;;;;;;8.17;1.60;;;18.60;99.90;;;;;;5051296;28;21245;-83
2023/01/07 09:47:08;;;;;;;7.68;1.65;;;18.60;99.90;;;;;;5033663;28;20388;-83
2023/01/07 09:49:35;;;;;;;9.15;1.90;;;18.60;99.90;;;;;;5046738;28;20868;-83
2023/01/07 09:52:14;;;;;;;9.13;1.97;;;18.60;99.90;;;;;;5057897;28;20427;-86
2023/01/07 09:54:43;;;;;;;8.82;1.80;;;18.60;99.90;;;;;;5059415;28;20397;-86
2023/01/07 09:57:15;;;;;;;8.40;1.90;;;18.60;99.90;;;;;;5061539;28;20422;-85
2023/01/07 09:59:42;;;;;;;7.18;1.60;;;18.60;99.90;;;;;;5051580;28;20386;-85
2023/01/07 10:02:33;;;;;;;9.50;1.90;;;18.60;99.90;;;;;;5059463;28;20396;-84
2023/01/07 10:05:33;;;;;;;9.50;2.03;;;18.60;99.90;;;;;;5050356;28;20378;-84
2023/01/07 10:08:10;;;;;;;8.43;1.88;;;18.60;99.90;;;;;;5032338;28;20760;-83
2023/01/07 10:10:46;;;;;;;12.15;2.25;;;18.60;99.90;;;;;;5042160;28;20711;-85
2023/01/07 10:13:22;;;;;;;8.82;1.60;;;18.60;99.90;;;;;;5038780;28;20953;-81
2023/01/07 10:16:01;;;;;;;10.48;1.95;;;18.60;99.90;;;;;;5051050;28;20414;-83
2023/01/07 10:18:50;;;;;;;9.23;1.98;;;18.60;99.90;;;;;;5051055;28;20915;-83
2023/01/07 10:21:49;;;;;;;10.97;2.03;;;18.60;99.90;;;;;;5039329;28;20387;-84
2023/01/07 10:24:40;;;;;;;11.40;1.70;;;18.60;99.90;;;;;;5049972;28;20471;-83
2023/01/07 10:27:13;;;;;;;11.88;2.03;;;18.60;99.90;;;;;;5051840;28;20393;-84
2023/01/07 10:30:03;;;;;;;9.18;2.13;;;18.60;99.90;;;;;;5049717;28;20463;-82
2023/01/07 10:32:35;;;;;;;12.15;2.15;;;18.50;99.90;;;;;;5038958;28;20395;-85
2023/01/07 10:35:06;;;;;;;8.27;1.90;;;18.50;99.90;;;;;;5031551;28;20419;-83
2023/01/07 10:37:39;;;;;;;10.80;2.50;;;18.50;99.90;;;;;;5039927;28;20388;-85
2023/01/07 10:40:12;;;;;;;10.48;2.05;;;18.40;99.90;;;;;;5053054;28;20439;-85
2023/01/07 10:42:45;;;;;;;11.63;2.00;;;18.50;99.90;;;;;;5051480;28;20407;-82
2023/01/07 10:45:23;;;;;;;12.30;2.30;;;18.50;99.90;;;;;;5027839;28;20383;-86
2023/01/07 10:48:06;;;;;;;10.57;1.95;;;18.50;99.90;;;;;;5049033;28;20449;-82
2023/01/07 10:50:44;;;;;;;9.73;2.13;;;18.50;99.90;;;;;;5048677;28;20899;-84
2023/01/07 10:53:48;;;;;;;10.07;2.20;;;18.50;99.90;;;;;;5053731;28;20387;-83
2023/01/07 10:56:27;;;;;;;6.85;2.10;;;18.50;99.90;;;;;;5042405;28;20900;-82
2023/01/07 10:58:54;;;;;;;8.73;2.08;;;18.50;99.90;;;;;;5043837;28;20388;-84
2023/01/07 11:01:32;;;;;;;12.45;2.28;;;18.50;99.90;;;;;;5042655;28;20500;-86
2023/01/07 11:04:00;;;;;;;11.95;2.08;;;18.50;99.90;;;;;;5052428;28;20408;-84
2023/01/07 11:06:42;;;;;;;11.63;2.20;;;18.50;99.90;;;;;;5052589;28;20391;-85
2023/01/07 11:09:16;;;;;;;13.45;2.40;;;18.50;99.90;;;;;;5052525;28;20395;-82
2023/01/07 11:11:47;;;;;;;15.60;2.60;;;18.50;99.90;;;;;;5040118;28;20753;-85
2023/01/07 11:14:27;;;;;;;12.05;2.50;;;18.40;99.90;;;;;;5052621;28;20770;-87
2023/01/07 11:17:14;;;;;;;13.27;2.40;;;18.40;99.90;;;;;;5052647;28;20387;-85
2023/01/07 11:19:51;;;;;;;13.35;2.60;;;18.40;99.90;;;;;;5053119;28;20454;-85
2023/01/07 11:22:27;;;;;;;10.75;2.25;;;18.40;99.90;;;;;;5053107;28;20371;-84
2023/01/07 11:24:56;;;;;;;12.57;2.50;;;18.30;99.90;;;;;;5052861;28;20380;-85
2023/01/07 11:27:27;;;;;;;11.32;2.28;;;18.30;99.90;;;;;;5047552;28;20490;-85
2023/01/07 11:30:00;;;;;;;11.00;2.00;;;18.30;99.90;;;;;;5052485;28;20412;-86
2023/01/07 11:32:34;;;;;;;11.18;2.30;;;18.40;99.90;;;;;;5040796;28;20375;-85
2023/01/07 11:35:18;;;;;;;10.75;2.25;;;18.40;99.90;;;;;;5050180;28;20391;-83
2023/01/07 11:37:47;;;;;;;12.05;2.33;;;18.40;99.90;;;;;;5051419;28;20380;-82
2023/01/07 11:40:17;;;;;;;10.57;2.33;;;18.30;99.90;;;;;;5051483;28;20851;-86
2023/01/07 11:43:02;;;;;;;11.40;2.40;;;18.30;99.90;;;;;;5041236;28;20397;-85
2023/01/07 11:46:03;;;;;;;10.43;2.20;;;18.20;99.90;;;;;;5043032;28;20380;-84
2023/01/07 11:48:41;;;;;;;8.15;2.50;;;18.30;99.90;;;;;;5047991;28;20441;-80
2023/01/07 11:51:09;;;;;;;10.48;2.45;;;18.20;99.90;;;;;;5050199;28;20383;-83
2023/01/07 11:53:44;;;;;;;8.52;2.28;;;18.20;99.90;;;;;;5046541;28;20397;-84
2023/01/07 11:56:21;;;;;;;10.40;2.40;;;18.20;99.90;;;;;;5054935;28;20404;-84
2023/01/07 11:58:51;;;;;;;10.57;2.38;;;18.20;99.90;;;;;;5063973;28;20372;-85
2023/01/07 12:01:23;;;;;;;10.85;2.45;;;18.20;99.90;;;;;;5052084;28;20786;-83
2023/01/07 12:03:53;;;;;;;9.07;2.30;;;18.20;99.90;;;;;;5060530;28;20370;-80
2023/01/07 12:06:33;;;;;;;10.13;2.40;;;18.20;99.90;;;;;;5053799;28;20746;-83
2023/01/07 12:09:08;;;;;;;9.32;2.40;;;18.10;99.90;;;;;;5052875;28;20410;-80
2023/01/07 12:11:38;;;;;;;12.53;2.80;;;18.00;99.90;;;;;;5046374;28;20844;-81
2023/01/07 12:14:33;;;;;;;8.60;2.30;;;18.00;99.90;;;;;;5052507;28;20912;-81
2023/01/07 12:17:19;;;;;;;9.17;2.30;;;18.00;99.90;;;;;;5052197;28;20384;-81
2023/01/07 12:20:14;;;;;;;11.25;3.78;;;18.00;99.90;;;;;;5040589;28;20709;-81
2023/01/07 12:22:47;;;;;;;13.23;4.78;;;18.00;99.90;;;;;;5052752;28;20402;-81
2023/01/07 12:25:23;;;;;;;13.60;5.70;;;17.90;99.90;;;;;;5050616;28;20395;-81
2023/01/07 12:28:09;;;;;;;9.98;2.72;;;18.00;99.90;;;;;;5039807;28;20525;-81
2023/01/07 12:31:03;;;;;;;8.90;2.40;;;18.00;99.90;;;;;;5052432;28;20802;-80
2023/01/07 12:33:42;;;;;;;9.45;2.13;;;18.00;99.90;;;;;;5052247;28;20372;-81
2023/01/07 12:36:35;;;;;;;10.25;2.30;;;18.00;99.90;;;;;;5051160;28;20408;-83
2023/01/07 12:39:13;;;;;;;13.38;2.63;;;18.00;99.90;;;;;;4970570;28;20995;-81
2023/01/07 12:41:45;;;;;;;8.85;2.22;;;18.00;99.90;;;;;;4971925;28;20375;-82
2023/01/07 12:44:20;;;;;;;9.15;2.20;;;18.00;99.90;;;;;;4967778;28;20395;-80
2023/01/07 12:47:28;;;;;;;12.02;2.60;;;18.00;99.90;;;;;;4970295;28;20378;-80
2023/01/07 12:50:19;;;;;;;12.48;2.55;;;17.90;99.90;;;;;;4950506;28;20535;-82
2023/01/07 12:52:52;;;;;;;9.18;2.60;;;17.90;99.90;;;;;;4964173;28;20401;-81
2023/01/07 12:55:24;;;;;;;9.70;2.50;;;17.90;99.90;;;;;;4988759;28;20404;-82
2023/01/07 12:58:09;;;;;;;9.25;2.47;;;17.90;99.90;;;;;;4988879;28;20431;-81
2023/01/07 13:00:48;;;;;;;8.45;2.25;;;17.90;99.90;;;;;;4988648;28;20392;-80
2023/01/07 13:03:24;;;;;;;9.48;2.35;;;17.80;99.90;;;;;;4988699;28;20587;-81
2023/01/07 13:06:22;;;;;;;8.57;2.45;;;17.90;99.90;;;;;;4977265;28;20587;-81
2023/01/07 13:09:06;;;;;;;8.88;2.50;;;17.90;99.90;;;;;;4980038;28;20432;-82
2023/01/07 13:14:43;;;;;;;8.63;2.25;;;18.00;99.90;;;;;;4987754;28;20482;-83
2023/01/07 13:17:27;;;;;;;8.18;2.05;;;18.00;99.90;;;;;;5063910;28;20810;-81